createdAt,value
2023-02-22T00:02:29.184Z,98100.38
2023-02-22T00:04:55.954Z,98096.13
2023-02-22T00:07:24.397Z,98097.19
2023-02-22T00:09:51.371Z,98092.97
2023-02-22T00:12:20.721Z,98088.31
2023-02-22T00:14:47.524Z,98094.50
2023-02-22T00:17:16.221Z,98091.44
2023-02-22T00:19:42.918Z,98091.13
2023-02-22T00:22:09.917Z,98100.25
2023-02-22T00:24:36.667Z,98089.59
2023-02-22T00:27:03.602Z,98090.47
2023-02-22T00:29:30.848Z,98090.59
2023-02-22T00:31:58.418Z,98090.72
2023-02-22T00:34:25.473Z,98101.91
2023-02-22T00:37:03.469Z,98095.47
2023-02-22T00:39:31.712Z,98100.25
2023-02-22T00:42:06.354Z,98098.13
2023-02-22T00:44:33.336Z,98093.09
2023-02-22T00:47:21.727Z,98099.53
2023-02-22T00:49:49.135Z,98088.19
2023-02-22T00:52:16.270Z,98086.50
2023-02-22T00:54:43.042Z,98095.34
2023-02-22T00:57:10.101Z,98091.44
2023-02-22T00:59:37.018Z,98091.06
2023-02-22T01:02:05.995Z,98087.19
2023-02-22T01:04:33.550Z,98079.66
2023-02-22T01:07:00.987Z,98084.66
2023-02-22T01:09:28.012Z,98077.25
2023-02-22T01:11:56.052Z,98076.13
2023-02-22T01:14:28.669Z,98081.72
2023-02-22T01:17:08.229Z,98079.00
2023-02-22T01:19:42.593Z,98074.66
2023-02-22T01:22:09.879Z,98079.63
2023-02-22T01:24:36.999Z,98081.44
2023-02-22T01:27:05.553Z,98077.09
2023-02-22T01:29:32.999Z,98078.47
2023-02-22T01:32:01.884Z,98079.25
2023-02-22T01:34:33.432Z,98076.81
2023-02-22T01:37:07.515Z,98078.06
2023-02-22T01:39:40.677Z,98075.28
2023-02-22T01:42:13.453Z,98072.94
2023-02-22T01:44:43.859Z,98074.53
2023-02-22T01:47:15.830Z,98066.28
2023-02-22T01:49:47.361Z,98065.72
2023-02-22T01:52:20.379Z,98070.19
2023-02-22T01:55:02.452Z,98068.91
2023-02-22T01:57:37.448Z,98062.38
2023-02-22T02:00:13.969Z,98062.28
2023-02-22T02:02:48.401Z,98065.78
2023-02-22T02:05:19.656Z,98057.63
2023-02-22T02:07:46.856Z,98052.06
2023-02-22T02:10:15.834Z,98056.94
2023-02-22T02:12:54.737Z,98049.94
2023-02-22T02:15:43.825Z,98058.06
2023-02-22T02:18:23.663Z,98057.38
2023-02-22T02:21:07.590Z,98061.44
2023-02-22T02:23:57.884Z,98054.28
2023-02-22T02:27:09.064Z,98058.59
2023-02-22T02:29:55.167Z,98044.47
2023-02-22T02:36:27.764Z,98050.75
2023-02-22T02:39:02.917Z,98042.47
2023-02-22T02:41:39.909Z,98044.72
2023-02-22T02:44:15.969Z,98045.19
2023-02-22T02:47:12.912Z,98038.22
2023-02-22T02:49:51.970Z,98046.34
2023-02-22T02:52:21.670Z,98037.84
2023-02-22T02:54:49.540Z,98041.25
2023-02-22T02:57:22.382Z,98031.84
2023-02-22T02:59:50.182Z,98039.06
2023-02-22T03:02:29.261Z,98032.69
2023-02-22T03:05:33.722Z,98035.22
2023-02-22T03:08:13.574Z,98032.84
2023-02-22T03:11:06.644Z,98034.38
2023-02-22T03:14:12.012Z,98030.47
2023-02-22T03:17:01.815Z,98028.78
2023-02-22T03:19:37.977Z,98025.56
2023-02-22T03:22:32.820Z,98024.03
2023-02-22T03:25:09.292Z,98018.38
2023-02-22T03:27:41.874Z,98021.13
2023-02-22T03:30:24.464Z,98025.81
2023-02-22T03:32:59.322Z,98024.69
2023-02-22T03:35:37.650Z,98020.63
2023-02-22T03:38:09.771Z,98020.06
2023-02-22T03:40:45.890Z,98017.34
2023-02-22T03:43:18.050Z,98017.53
2023-02-22T03:45:49.050Z,98014.28
2023-02-22T03:48:31.562Z,98005.34
2023-02-22T03:51:04.964Z,98013.19
2023-02-22T03:53:48.350Z,98013.63
2023-02-22T03:56:27.364Z,98024.22
2023-02-22T03:58:55.960Z,98020.91
2023-02-22T04:01:23.933Z,98014.97
2023-02-22T04:03:51.053Z,98016.00
2023-02-22T04:06:24.436Z,98011.81
2023-02-22T04:08:54.759Z,98012.94
2023-02-22T04:11:22.727Z,98010.34
2023-02-22T04:13:50.122Z,98007.88
2023-02-22T04:16:34.604Z,98000.47
2023-02-22T04:19:12.018Z,98009.72
2023-02-22T04:21:40.390Z,98011.38
2023-02-22T04:24:14.414Z,98003.69
2023-02-22T04:26:45.030Z,98011.53
2023-02-22T04:29:12.160Z,98013.91
2023-02-22T04:31:43.505Z,98009.09
2023-02-22T04:34:10.888Z,98007.44
2023-02-22T04:36:42.536Z,98003.72
2023-02-22T04:39:14.343Z,98001.81
2023-02-22T04:41:42.363Z,97994.00
2023-02-22T04:44:09.894Z,98002.84
2023-02-22T04:46:36.874Z,97995.84
2023-02-22T04:49:03.740Z,97995.28
2023-02-22T04:51:35.905Z,97997.09
2023-02-22T04:54:06.429Z,97991.94
2023-02-22T04:56:45.625Z,97990.91
2023-02-22T04:59:16.033Z,97988.53
2023-02-22T05:01:46.862Z,97990.34
2023-02-22T05:04:14.040Z,97993.75
2023-02-22T05:06:43.196Z,97990.28
2023-02-22T05:09:21.869Z,97987.91
2023-02-22T05:11:49.456Z,97993.56
2023-02-22T05:14:19.393Z,97990.19
2023-02-22T05:16:52.332Z,97998.44
2023-02-22T05:19:19.388Z,97991.66
2023-02-22T05:21:46.567Z,97992.63
2023-02-22T05:24:13.708Z,97991.78
2023-02-22T05:26:44.839Z,97990.34
2023-02-22T05:29:20.037Z,97990.09
2023-02-22T05:31:48.102Z,97990.38
2023-02-22T05:34:18.623Z,97996.97
2023-02-22T05:36:46.786Z,97989.97
2023-02-22T05:39:17.215Z,97994.19
2023-02-22T05:41:44.485Z,98000.59
2023-02-22T05:44:20.855Z,97997.66
2023-02-22T05:47:18.447Z,97993.91
2023-02-22T05:49:48.765Z,97991.94
2023-02-22T05:52:16.116Z,97995.00
2023-02-22T05:54:53.393Z,98001.44
2023-02-22T05:57:20.341Z,98002.28
2023-02-22T05:59:49.190Z,98005.38
2023-02-22T06:02:16.887Z,98003.13
2023-02-22T06:04:50.188Z,98003.00
2023-02-22T06:07:19.633Z,98001.19
2023-02-22T06:09:47.592Z,98000.06
2023-02-22T06:12:15.080Z,97996.84
2023-02-22T06:14:51.265Z,98002.72
2023-02-22T06:17:20.557Z,98010.53
2023-02-22T06:19:50.102Z,98011.97
2023-02-22T06:22:19.775Z,98011.97
2023-02-22T06:24:47.339Z,98012.94
2023-02-22T06:27:14.408Z,98018.00
2023-02-22T06:29:45.912Z,98014.09
2023-02-22T06:32:15.371Z,98012.00
2023-02-22T06:34:49.346Z,98017.84
2023-02-22T06:37:21.226Z,98010.56
2023-02-22T06:40:08.649Z,98014.03
2023-02-22T06:42:39.126Z,98016.72
2023-02-22T06:45:09.594Z,98018.66
2023-02-22T06:47:46.024Z,98012.94
2023-02-22T06:50:25.043Z,98020.91
2023-02-22T06:52:58.388Z,98012.53
2023-02-22T06:55:30.108Z,98023.31
2023-02-22T06:57:56.882Z,98025.72
2023-02-22T07:00:26.259Z,98019.81
2023-02-22T07:02:56.187Z,98028.09
2023-02-22T07:05:24.234Z,98029.22
2023-02-22T07:07:53.147Z,98027.53
2023-02-22T07:10:27.594Z,98035.94
2023-02-22T07:12:54.995Z,98029.94
2023-02-22T07:16:16.794Z,98029.34
2023-02-22T07:18:43.515Z,98023.88
2023-02-22T07:21:35.950Z,98027.66
2023-02-22T07:24:05.398Z,98029.16
2023-02-22T07:26:39.263Z,98022.56
2023-02-22T07:29:06.293Z,98029.16
2023-02-22T07:31:37.356Z,98028.69
2023-02-22T07:34:04.222Z,98027.97
2023-02-22T07:36:31.792Z,98027.50
2023-02-22T07:38:58.790Z,98030.53
2023-02-22T07:41:25.783Z,98031.66
2023-02-22T07:43:54.084Z,98033.84
2023-02-22T07:46:21.189Z,98030.41
2023-02-22T07:48:47.996Z,98032.78
2023-02-22T07:51:23.508Z,98026.91
2023-02-22T07:53:50.484Z,98031.03
2023-02-22T07:56:18.239Z,98024.53
2023-02-22T07:58:45.198Z,98031.75
2023-02-22T08:01:12.189Z,98027.50
2023-02-22T08:03:39.379Z,98025.38
2023-02-22T08:06:10.650Z,98026.13
2023-02-22T08:08:37.449Z,98028.94
2023-02-22T08:11:07.516Z,98029.44
2023-02-22T08:13:37.157Z,98033.00
2023-02-22T08:16:04.926Z,98029.75
2023-02-22T08:18:31.921Z,98033.25
2023-02-22T08:20:59.722Z,98022.94
2023-02-22T08:23:27.469Z,98027.59
2023-02-22T08:25:55.762Z,98032.41
2023-02-22T08:28:24.661Z,98036.66
2023-02-22T08:30:51.809Z,98042.63
2023-02-22T08:33:19.905Z,98039.81
2023-02-22T08:35:49.948Z,98036.03
2023-02-22T08:38:32.224Z,98030.31
2023-02-22T08:40:59.977Z,98039.72
2023-02-22T08:43:28.745Z,98032.78
2023-02-22T08:45:58.472Z,98029.19
2023-02-22T08:48:25.824Z,98030.34
2023-02-22T08:50:52.923Z,98030.41
2023-02-22T08:53:19.645Z,98030.19
2023-02-22T08:55:46.476Z,98041.44
2023-02-22T08:58:13.696Z,98029.41
2023-02-22T09:00:41.911Z,98036.16
2023-02-22T09:03:13.329Z,98038.88
2023-02-22T09:05:41.905Z,98035.72
2023-02-22T09:08:08.952Z,98036.63
2023-02-22T09:10:36.520Z,98035.63
2023-02-22T09:13:04.494Z,98031.81
2023-02-22T09:15:32.867Z,98027.06
2023-02-22T09:18:00.112Z,98033.78
2023-02-22T09:20:27.961Z,98027.94
2023-02-22T09:22:55.302Z,98033.44
2023-02-22T09:25:24.501Z,98037.47
2023-02-22T09:27:52.859Z,98035.91
2023-02-22T09:30:38.044Z,98027.66
2023-02-22T09:33:17.074Z,98032.78
2023-02-22T09:35:49.901Z,98029.66
2023-02-22T09:38:26.144Z,98025.47
2023-02-22T09:40:57.901Z,98028.13
2023-02-22T09:43:33.992Z,98021.94
2023-02-22T09:46:25.566Z,98026.28
2023-02-22T09:49:15.660Z,98018.94
2023-02-22T09:52:08.301Z,98031.31
2023-02-22T09:54:52.124Z,98016.91
2023-02-22T09:57:28.006Z,98018.97
2023-02-22T10:00:20.148Z,98020.31
2023-02-22T10:03:07.140Z,98016.47
2023-02-22T10:05:39.973Z,98012.63
2023-02-22T10:08:13.830Z,98014.81
2023-02-22T10:10:46.763Z,98011.66
2023-02-22T10:13:25.655Z,98000.91
2023-02-22T10:16:01.904Z,98009.81
2023-02-22T10:18:36.457Z,98015.81
2023-02-22T10:21:21.882Z,98003.09
2023-02-22T10:23:51.855Z,98003.59
2023-02-22T10:26:32.948Z,98005.28
2023-02-22T10:29:10.950Z,97993.88
2023-02-22T10:31:44.250Z,98002.59
2023-02-22T10:34:17.280Z,97988.88
2023-02-22T10:36:47.811Z,97995.06
2023-02-22T10:39:39.943Z,97987.50
2023-02-22T10:42:09.457Z,97984.34
2023-02-22T10:44:39.922Z,97976.28
2023-02-22T10:47:11.987Z,97983.16
2023-02-22T10:49:49.267Z,97979.16
2023-02-22T10:52:35.103Z,97982.00
2023-02-22T10:55:14.482Z,97987.69
2023-02-22T10:57:46.265Z,97981.13
2023-02-22T11:00:37.279Z,97977.72
2023-02-22T11:03:24.435Z,97971.75
2023-02-22T11:05:54.184Z,97967.00
2023-02-22T11:08:21.130Z,97968.25
2023-02-22T11:10:49.064Z,97970.09
2023-02-22T11:13:30.108Z,97961.72
2023-02-22T11:16:03.325Z,97955.66
2023-02-22T11:18:35.393Z,97959.72
2023-02-22T11:21:10.297Z,97959.69
2023-02-22T11:23:39.610Z,97956.84
2023-02-22T11:26:19.055Z,97950.44
2023-02-22T11:28:50.017Z,97952.03
2023-02-22T11:31:27.292Z,97949.25
2023-02-22T11:34:02.891Z,97947.84
2023-02-22T11:36:30.684Z,97948.16
2023-02-22T11:38:59.791Z,97950.09
2023-02-22T11:41:29.366Z,97934.19
2023-02-22T11:44:34.264Z,97940.28
2023-02-22T11:47:07.030Z,97931.66
2023-02-22T11:49:43.016Z,97926.09
2023-02-22T11:52:27.145Z,97925.84
2023-02-22T11:55:36.275Z,97921.66
2023-02-22T11:58:37.533Z,97920.56
2023-02-22T12:01:22.201Z,97920.66
2023-02-22T12:04:07.240Z,97919.81
2023-02-22T12:07:02.942Z,97909.75
2023-02-22T12:09:49.225Z,97912.91
2023-02-22T12:12:58.108Z,97914.53
2023-02-22T12:15:46.295Z,97912.59
2023-02-22T12:18:34.489Z,97912.16
2023-02-22T12:21:07.509Z,97908.19
2023-02-22T12:23:53.164Z,97904.72
2023-02-22T12:26:37.734Z,97904.41
2023-02-22T12:29:23.376Z,97904.44
2023-02-22T12:31:57.594Z,97902.41
2023-02-22T12:34:30.420Z,97901.09
2023-02-22T12:37:12.928Z,97899.28
2023-02-22T12:40:06.266Z,97893.41
2023-02-22T12:42:47.689Z,97902.59
2023-02-22T12:45:30.400Z,97902.34
2023-02-22T12:48:21.735Z,97897.34
2023-02-22T12:50:54.871Z,97901.28
2023-02-22T12:53:29.610Z,97889.06
2023-02-22T12:56:16.117Z,97893.78
2023-02-22T12:59:03.250Z,97899.84
2023-02-22T13:01:41.207Z,97892.06
2023-02-22T13:04:20.233Z,97893.59
2023-02-22T13:06:58.862Z,97893.28
2023-02-22T13:09:56.461Z,97893.56
2023-02-22T13:12:51.324Z,97886.09
2023-02-22T13:15:25.868Z,97890.19
2023-02-22T13:18:06.188Z,97888.94
2023-02-22T13:20:57.913Z,97889.44
2023-02-22T13:23:25.349Z,97884.75
2023-02-22T13:25:58.137Z,97884.66
2023-02-22T13:28:30.880Z,97883.03
2023-02-22T13:31:07.008Z,97879.19
2023-02-22T13:33:40.064Z,97881.84
2023-02-22T13:36:49.019Z,97876.16
2023-02-22T13:39:42.608Z,97872.44
2023-02-22T13:42:15.674Z,97877.69
2023-02-22T13:44:57.213Z,97870.19
2023-02-22T13:47:58.026Z,97877.84
2023-02-22T13:50:47.852Z,97879.91
2023-02-22T13:53:22.160Z,97873.22
2023-02-22T13:55:56.870Z,97874.09
2023-02-22T13:58:24.389Z,97875.78
2023-02-22T14:01:00.692Z,97874.69
2023-02-22T14:03:41.460Z,97872.50
2023-02-22T14:06:10.787Z,97873.94
2023-02-22T14:08:37.672Z,97875.16
2023-02-22T14:11:07.002Z,97878.56
2023-02-22T14:14:01.113Z,97879.59
2023-02-22T14:16:35.022Z,97875.00
2023-02-22T14:19:06.723Z,97879.50
2023-02-22T14:21:35.877Z,97876.41
2023-02-22T14:24:09.786Z,97874.06
2023-02-22T14:26:39.400Z,97874.72
2023-02-22T14:29:08.858Z,97871.25
2023-02-22T14:31:43.949Z,97865.06
2023-02-22T14:34:32.398Z,97863.81
2023-02-22T14:37:05.328Z,97864.34
2023-02-22T14:39:42.481Z,97867.00
2023-02-22T14:42:15.859Z,97864.16
2023-02-22T14:44:52.017Z,97859.69
2023-02-22T14:47:30.288Z,97864.78
2023-02-22T14:50:04.786Z,97865.72
2023-02-22T14:52:35.943Z,97863.03
2023-02-22T14:55:33.539Z,97856.84
2023-02-22T14:58:23.640Z,97861.94
2023-02-22T15:00:53.917Z,97861.44
2023-02-22T15:03:37.787Z,97865.47
2023-02-22T15:06:14.992Z,97860.97
2023-02-22T15:08:48.946Z,97859.31
2023-02-22T15:11:26.632Z,97861.78
2023-02-22T15:13:55.009Z,97864.81
2023-02-22T15:16:23.341Z,97859.31
2023-02-22T15:18:53.930Z,97857.97
2023-02-22T15:21:24.279Z,97853.56
2023-02-22T15:24:00.486Z,97861.72
2023-02-22T15:26:37.395Z,97842.72
2023-02-22T15:29:19.442Z,97856.63
2023-02-22T15:31:48.323Z,97863.66
2023-02-22T15:34:15.359Z,97855.94
2023-02-22T15:36:44.784Z,97858.97
2023-02-22T15:39:30.022Z,97853.41
2023-02-22T15:42:21.182Z,97848.25
2023-02-22T15:44:50.549Z,97852.78
2023-02-22T15:47:20.774Z,97852.63
2023-02-22T15:50:23.383Z,97853.81
2023-02-22T15:52:54.365Z,97857.09
2023-02-22T15:55:47.444Z,97846.41
2023-02-22T15:58:25.358Z,97849.59
2023-02-22T16:01:02.968Z,97853.75
2023-02-22T16:03:45.609Z,97857.44
2023-02-22T16:06:35.439Z,97853.63
2023-02-22T16:09:26.195Z,97845.88
2023-02-22T16:12:28.159Z,97848.91
2023-02-22T16:14:59.133Z,97844.53
2023-02-22T16:17:36.749Z,97848.88
2023-02-22T16:20:18.787Z,97842.38
2023-02-22T16:22:50.699Z,97849.03
2023-02-22T16:25:21.803Z,97847.91
2023-02-22T16:28:03.051Z,97850.06
2023-02-22T16:30:35.991Z,97848.00
2023-02-22T16:33:16.542Z,97853.72
2023-02-22T16:35:52.186Z,97858.91
2023-02-22T16:38:21.111Z,97860.25
2023-02-22T16:40:54.044Z,97858.25
2023-02-22T16:43:39.851Z,97859.25
2023-02-22T16:46:07.254Z,97854.91
2023-02-22T16:48:38.127Z,97852.41
2023-02-22T16:51:21.685Z,97869.28
2023-02-22T16:53:49.084Z,97861.09
2023-02-22T16:56:19.287Z,97861.94
2023-02-22T16:58:50.057Z,97873.47
2023-02-22T17:01:18.264Z,97860.59
2023-02-22T17:03:45.548Z,97869.28
2023-02-22T17:06:12.378Z,97869.63
2023-02-22T17:08:42.154Z,97864.25
2023-02-22T17:11:12.898Z,97867.09
2023-02-22T17:13:41.020Z,97860.59
2023-02-22T17:16:14.258Z,97867.78
2023-02-22T17:18:41.399Z,97867.06
2023-02-22T17:21:10.935Z,97873.56
2023-02-22T17:23:37.902Z,97868.38
2023-02-22T17:26:04.987Z,97871.78
2023-02-22T17:28:32.244Z,97872.56
2023-02-22T17:31:02.897Z,97873.75
2023-02-22T17:33:33.315Z,97876.06
2023-02-22T17:36:02.169Z,97874.88
2023-02-22T17:38:30.763Z,97874.78
2023-02-22T17:41:00.314Z,97877.97
2023-02-22T17:43:29.697Z,97881.03
2023-02-22T17:45:57.091Z,97873.19
2023-02-22T17:48:25.865Z,97868.25
2023-02-22T17:50:54.203Z,97868.19
2023-02-22T17:53:24.890Z,97873.28
2023-02-22T17:55:52.675Z,97869.38
2023-02-22T17:58:22.325Z,97871.63
2023-02-22T18:01:10.384Z,97864.75
2023-02-22T18:03:39.583Z,97857.88
2023-02-22T18:06:08.161Z,97862.25
2023-02-22T18:08:40.498Z,97870.56
2023-02-22T18:11:07.544Z,97856.84
2023-02-22T18:13:34.562Z,97864.69
2023-02-22T18:16:05.119Z,97861.25
2023-02-22T18:18:32.800Z,97870.06
2023-02-22T18:21:00.637Z,97862.34
2023-02-22T18:23:31.798Z,97862.78
2023-02-22T18:26:10.832Z,97860.97
2023-02-22T18:28:38.658Z,97856.69
2023-02-22T18:31:09.208Z,97858.72
2023-02-22T18:33:36.618Z,97858.03
2023-02-22T18:36:03.747Z,97858.09
2023-02-22T18:38:30.658Z,97869.31
2023-02-22T18:41:06.292Z,97860.19
2023-02-22T18:43:36.804Z,97862.06
2023-02-22T18:46:13.314Z,97855.72
2023-02-22T18:48:40.763Z,97855.84
2023-02-22T18:51:17.512Z,97859.59
2023-02-22T18:53:48.063Z,97857.56
2023-02-22T18:56:22.146Z,97862.09
2023-02-22T18:58:59.490Z,97858.44
2023-02-22T19:01:30.809Z,97863.09
2023-02-22T19:03:57.954Z,97854.72
2023-02-22T19:06:24.971Z,97858.41
2023-02-22T19:08:52.924Z,97858.03
2023-02-22T19:11:22.703Z,97854.91
2023-02-22T19:13:54.065Z,97855.59
2023-02-22T19:16:23.426Z,97849.28
2023-02-22T19:18:52.710Z,97855.50
2023-02-22T19:21:20.313Z,97845.22
2023-02-22T19:23:49.148Z,97849.34
2023-02-22T19:26:26.527Z,97843.41
2023-02-22T19:28:55.800Z,97848.81
2023-02-22T19:31:29.506Z,97846.38
2023-02-22T19:34:05.113Z,97843.59
2023-02-22T19:36:32.038Z,97842.72
2023-02-22T19:39:02.260Z,97844.13
2023-02-22T19:41:30.594Z,97846.53
2023-02-22T19:43:59.406Z,97846.53
2023-02-22T19:46:26.283Z,97845.00
2023-02-22T19:48:55.249Z,97843.50
2023-02-22T19:51:25.538Z,97838.88
2023-02-22T19:53:54.304Z,97841.69
2023-02-22T19:56:27.380Z,97842.94
2023-02-22T19:58:56.593Z,97840.84
2023-02-22T20:01:26.611Z,97845.31
2023-02-22T20:04:00.250Z,97840.59
2023-02-22T20:06:40.495Z,97834.19
2023-02-22T20:09:14.748Z,97844.66
2023-02-22T20:11:41.575Z,97845.22
2023-02-22T20:14:12.663Z,97834.75
2023-02-22T20:16:39.947Z,97836.72
2023-02-22T20:19:09.237Z,97841.47
2023-02-22T20:21:39.528Z,97832.78
2023-02-22T20:24:08.544Z,97838.09
2023-02-22T20:26:38.120Z,97834.84
2023-02-22T20:29:06.186Z,97832.88
2023-02-22T20:31:33.570Z,97846.59
2023-02-22T20:34:01.187Z,97841.81
2023-02-22T20:36:30.466Z,97845.44
2023-02-22T20:39:00.997Z,97844.03
2023-02-22T20:41:34.015Z,97833.31
2023-02-22T20:44:02.156Z,97838.31
2023-02-22T20:46:56.298Z,97836.91
2023-02-22T20:49:39.909Z,97838.44
2023-02-22T20:52:06.816Z,97838.44
2023-02-22T20:54:35.323Z,97836.47
2023-02-22T20:57:02.312Z,97834.97
2023-02-22T20:59:29.145Z,97833.81
2023-02-22T21:01:56.546Z,97837.22
2023-02-22T21:04:23.900Z,97829.09
2023-02-22T21:06:52.069Z,97834.81
2023-02-22T21:09:20.613Z,97833.13
2023-02-22T21:11:47.844Z,97832.16
2023-02-22T21:14:18.878Z,97831.22
2023-02-22T21:16:51.536Z,97838.25
2023-02-22T21:19:26.024Z,97835.59
2023-02-22T21:21:57.918Z,97836.53
2023-02-22T21:24:26.710Z,97831.22
2023-02-22T21:26:54.346Z,97826.06
2023-02-22T21:29:21.221Z,97827.47
2023-02-22T21:31:48.139Z,97840.22
2023-02-22T21:34:17.561Z,97824.94
2023-02-22T21:36:45.332Z,97816.41
2023-02-22T21:39:20.468Z,97824.69
2023-02-22T21:41:49.804Z,97828.16
2023-02-22T21:44:17.665Z,97827.75
2023-02-22T21:46:46.886Z,97807.63
2023-02-22T21:49:13.898Z,97818.63
2023-02-22T21:51:42.052Z,97822.88
2023-02-22T21:54:10.537Z,97826.22
2023-02-22T21:56:39.944Z,97818.78
2023-02-22T21:59:11.755Z,97820.78
2023-02-22T22:01:47.600Z,97821.31
2023-02-22T22:04:18.917Z,97820.34
2023-02-22T22:06:53.957Z,97819.63
2023-02-22T22:09:23.796Z,97816.44
2023-02-22T22:11:50.853Z,97822.88
2023-02-22T22:14:23.384Z,97832.19
2023-02-22T22:16:59.706Z,97827.91
2023-02-22T22:19:29.342Z,97828.13
2023-02-22T22:21:57.184Z,97822.16
2023-02-22T22:24:24.678Z,97820.63
2023-02-22T22:26:54.755Z,97827.31
2023-02-22T22:29:28.547Z,97822.28
2023-02-22T22:31:56.798Z,97823.53
2023-02-22T22:34:29.558Z,97820.03
2023-02-22T22:36:59.975Z,97826.13
2023-02-22T22:39:29.435Z,97821.69
2023-02-22T22:41:56.175Z,97818.22
2023-02-22T22:44:23.121Z,97826.50
2023-02-22T22:46:53.832Z,97817.00
2023-02-22T22:49:23.346Z,97816.16
2023-02-22T22:51:50.188Z,97818.69
2023-02-22T22:54:16.888Z,97808.91
2023-02-22T22:56:43.570Z,97817.00
2023-02-22T22:59:10.861Z,97811.28
2023-02-22T23:01:40.697Z,97810.56
2023-02-22T23:04:10.710Z,97809.44
2023-02-22T23:06:40.851Z,97814.06
2023-02-22T23:09:14.035Z,97810.56
2023-02-22T23:11:47.015Z,97815.44
2023-02-22T23:14:22.123Z,97817.69
2023-02-22T23:17:00.147Z,97811.56
2023-02-22T23:19:26.946Z,97806.81
2023-02-22T23:21:55.966Z,97807.38
2023-02-22T23:24:26.848Z,97808.91
2023-02-22T23:26:55.296Z,97802.91
2023-02-22T23:29:23.221Z,97802.06
2023-02-22T23:31:50.620Z,97804.34
2023-02-22T23:34:18.879Z,97806.25
2023-02-22T23:36:46.621Z,97801.75
2023-02-22T23:39:15.367Z,97796.00
2023-02-22T23:41:42.589Z,97797.25
2023-02-22T23:44:17.725Z,97797.50
2023-02-22T23:46:48.489Z,97797.72
2023-02-22T23:49:20.729Z,97798.69
2023-02-22T23:51:48.614Z,97798.69
2023-02-22T23:54:21.197Z,97786.78
2023-02-22T23:56:56.508Z,97798.53
2023-02-22T23:59:27.323Z,97795.75
